createdAt,value
2022-08-21T00:02:16.142Z,15.96
2022-08-21T00:04:55.864Z,15.86
2022-08-21T00:07:26.993Z,15.78
2022-08-21T00:09:55.374Z,15.81
2022-08-21T00:12:23.709Z,15.76
2022-08-21T00:18:28.477Z,15.83
2022-08-21T00:20:56.574Z,15.76
2022-08-21T00:23:27.961Z,16.01
2022-08-21T00:25:58.103Z,16.20
2022-08-21T00:28:26.510Z,16.14
2022-08-21T00:30:57.592Z,15.91
2022-08-21T00:33:28.300Z,15.72
2022-08-21T00:35:56.507Z,15.61
2022-08-21T00:38:24.783Z,15.50
2022-08-21T00:40:55.547Z,15.40
2022-08-21T00:43:32.102Z,15.36
2022-08-21T00:46:03.887Z,15.32
2022-08-21T00:48:34.751Z,15.27
2022-08-21T00:51:07.490Z,15.20
2022-08-21T00:53:38.126Z,15.18
2022-08-21T00:56:11.791Z,15.36
2022-08-21T00:58:44.599Z,15.39
2022-08-21T01:01:12.969Z,15.38
2022-08-21T01:03:45.403Z,15.54
2022-08-21T01:06:16.116Z,15.60
2022-08-21T01:08:47.971Z,15.50
2022-08-21T01:11:16.951Z,15.51
2022-08-21T01:13:47.574Z,15.35
2022-08-21T01:16:19.125Z,15.34
2022-08-21T01:18:51.721Z,15.27
2022-08-21T01:21:28.135Z,15.19
2022-08-21T01:23:58.738Z,15.14
2022-08-21T01:26:33.756Z,15.01
2022-08-21T01:29:07.621Z,15.03
2022-08-21T01:31:36.001Z,15.00
2022-08-21T01:34:04.345Z,14.97
2022-08-21T01:36:37.004Z,14.93
2022-08-21T01:39:06.808Z,14.95
2022-08-21T01:41:34.910Z,14.90
2022-08-21T01:44:02.964Z,14.84
2022-08-21T01:46:31.167Z,14.78
2022-08-21T01:48:59.510Z,14.73
2022-08-21T01:51:29.840Z,14.66
2022-08-21T01:53:59.513Z,14.58
2022-08-21T01:56:28.775Z,14.50
2022-08-21T01:58:57.450Z,14.45
2022-08-21T02:01:25.600Z,14.41
2022-08-21T02:03:54.020Z,14.37
2022-08-21T02:06:24.430Z,14.30
2022-08-21T02:08:52.973Z,14.23
2022-08-21T02:11:24.910Z,14.16
2022-08-21T02:13:52.992Z,14.12
2022-08-21T02:16:21.485Z,14.09
2022-08-21T02:18:49.633Z,13.94
2022-08-21T02:21:17.922Z,13.96
2022-08-21T02:23:46.242Z,13.89
2022-08-21T02:26:16.802Z,13.85
2022-08-21T02:28:48.225Z,13.82
2022-08-21T02:31:16.861Z,13.80
2022-08-21T02:33:45.135Z,13.79
2022-08-21T02:36:14.033Z,13.85
2022-08-21T02:38:44.231Z,13.83
2022-08-21T02:41:17.104Z,13.86
2022-08-21T02:43:49.271Z,13.83
2022-08-21T02:46:19.888Z,13.83
2022-08-21T02:48:50.390Z,13.79
2022-08-21T02:51:20.836Z,13.72
2022-08-21T02:53:50.274Z,13.69
2022-08-21T02:56:20.425Z,13.63
2022-08-21T02:58:53.068Z,13.56
2022-08-21T03:01:23.238Z,13.58
2022-08-21T03:03:51.978Z,13.58
2022-08-21T03:06:22.828Z,13.56
2022-08-21T03:08:51.926Z,13.60
2022-08-21T03:11:21.650Z,13.52
2022-08-21T03:13:51.533Z,13.57
2022-08-21T03:16:20.504Z,13.57
2022-08-21T03:18:48.505Z,13.55
2022-08-21T03:21:17.105Z,13.54
2022-08-21T03:23:45.050Z,13.52
2022-08-21T03:26:13.405Z,13.50
2022-08-21T03:28:42.132Z,13.47
2022-08-21T03:31:11.632Z,13.46
2022-08-21T03:33:42.405Z,13.44
2022-08-21T03:36:11.450Z,13.44
2022-08-21T03:38:39.843Z,13.42
2022-08-21T03:41:09.370Z,13.42
2022-08-21T03:43:39.450Z,13.43
2022-08-21T03:46:08.233Z,13.42
2022-08-21T03:48:39.550Z,13.33
2022-08-21T03:51:08.580Z,13.38
2022-08-21T03:53:37.360Z,13.41
2022-08-21T03:56:07.463Z,13.35
2022-08-21T03:58:35.626Z,13.35
2022-08-21T04:01:07.372Z,13.35
2022-08-21T04:03:38.339Z,13.34
2022-08-21T04:06:07.704Z,13.35
2022-08-21T04:08:35.972Z,13.38
2022-08-21T04:11:04.419Z,13.53
2022-08-21T04:13:32.556Z,13.52
2022-08-21T04:16:00.781Z,13.50
2022-08-21T04:18:29.149Z,13.52
2022-08-21T04:21:00.588Z,13.50
2022-08-21T04:23:30.207Z,13.44
2022-08-21T04:25:59.270Z,13.53
2022-08-21T04:28:30.446Z,13.54
2022-08-21T04:31:01.650Z,13.50
2022-08-21T04:33:33.008Z,13.44
2022-08-21T04:36:03.445Z,13.50
2022-08-21T04:38:37.596Z,13.47
2022-08-21T04:41:06.489Z,13.47
2022-08-21T04:43:37.167Z,13.48
2022-08-21T04:46:05.444Z,13.48
2022-08-21T04:48:33.914Z,13.49
2022-08-21T04:51:11.840Z,13.49
2022-08-21T04:53:43.525Z,13.56
2022-08-21T04:56:16.308Z,13.58
2022-08-21T04:58:45.044Z,13.89
2022-08-21T05:01:17.552Z,14.19
2022-08-21T05:03:46.732Z,14.19
2022-08-21T05:06:17.982Z,14.25
2022-08-21T05:08:49.545Z,14.23
2022-08-21T05:11:21.204Z,14.22
2022-08-21T05:13:49.300Z,14.27
2022-08-21T05:19:27.711Z,14.53
2022-08-21T05:21:56.202Z,14.65
2022-08-21T05:24:28.984Z,14.81
2022-08-21T05:26:57.320Z,15.00
2022-08-21T05:29:25.436Z,15.18
2022-08-21T05:31:54.288Z,15.44
2022-08-21T05:34:27.331Z,15.78
2022-08-21T05:36:55.682Z,16.01
2022-08-21T05:39:23.682Z,16.23
2022-08-21T05:41:51.798Z,16.54
2022-08-21T05:44:22.465Z,16.84
2022-08-21T05:46:50.635Z,17.09
2022-08-21T05:49:19.117Z,17.12
2022-08-21T05:51:50.710Z,17.41
2022-08-21T05:54:18.772Z,17.43
2022-08-21T05:56:48.987Z,17.52
2022-08-21T05:59:17.276Z,17.64
2022-08-21T06:01:46.277Z,17.79
2022-08-21T06:04:15.094Z,17.97
2022-08-21T06:06:43.189Z,17.97
2022-08-21T06:09:12.574Z,18.15
2022-08-21T06:11:41.023Z,18.31
2022-08-21T06:14:08.988Z,18.34
2022-08-21T06:16:37.251Z,18.54
2022-08-21T06:19:05.329Z,18.30
2022-08-21T06:21:33.434Z,18.29
2022-08-21T06:24:01.608Z,18.44
2022-08-21T06:26:31.119Z,18.98
2022-08-21T06:28:59.506Z,19.69
2022-08-21T06:31:29.291Z,20.34
2022-08-21T06:33:57.559Z,21.29
2022-08-21T06:36:28.344Z,21.88
2022-08-21T06:38:57.099Z,22.87
2022-08-21T06:41:27.117Z,23.13
2022-08-21T06:43:58.153Z,23.37
2022-08-21T06:46:27.984Z,23.73
2022-08-21T06:48:59.068Z,24.10
2022-08-21T06:51:28.416Z,25.59
2022-08-21T06:53:57.024Z,25.29
2022-08-21T06:56:27.640Z,25.08
2022-08-21T06:58:57.200Z,25.33
2022-08-21T07:01:27.510Z,26.13
2022-08-21T07:03:55.702Z,26.45
2022-08-21T07:06:26.990Z,26.16
2022-08-21T07:08:55.436Z,26.21
2022-08-21T07:11:27.487Z,26.35
2022-08-21T07:13:57.619Z,26.19
2022-08-21T07:16:25.918Z,26.40
2022-08-21T07:18:56.332Z,26.25
2022-08-21T07:21:26.221Z,26.80
2022-08-21T07:23:56.974Z,27.28
2022-08-21T07:26:26.833Z,28.35
2022-08-21T07:28:58.688Z,29.19
2022-08-21T07:31:27.733Z,29.66
2022-08-21T07:33:56.499Z,30.41
2022-08-21T07:36:24.867Z,29.23
2022-08-21T07:38:53.211Z,30.01
2022-08-21T07:41:24.696Z,30.18
2022-08-21T07:43:53.136Z,30.40
2022-08-21T07:46:22.654Z,29.78
2022-08-21T07:48:50.956Z,30.75
2022-08-21T07:51:25.915Z,30.33
2022-08-21T07:53:55.070Z,29.97
2022-08-21T07:56:23.355Z,29.55
2022-08-21T07:58:51.571Z,30.83
2022-08-21T08:01:20.391Z,31.67
2022-08-21T08:03:49.868Z,32.25
2022-08-21T08:06:20.611Z,31.74
2022-08-21T08:08:48.932Z,31.00
2022-08-21T08:11:17.059Z,32.47
2022-08-21T08:13:47.678Z,30.43
2022-08-21T08:16:16.398Z,30.95
2022-08-21T08:18:49.225Z,30.68
2022-08-21T08:21:17.639Z,30.85
2022-08-21T08:23:46.108Z,31.91
2022-08-21T08:26:14.742Z,31.83
2022-08-21T08:28:42.733Z,31.55
2022-08-21T08:31:13.078Z,32.83
2022-08-21T08:33:43.779Z,32.67
2022-08-21T08:36:19.962Z,31.83
2022-08-21T08:38:49.330Z,32.79
2022-08-21T08:41:23.731Z,31.60
2022-08-21T08:44:00.450Z,32.22
2022-08-21T08:46:37.363Z,32.29
2022-08-21T08:49:12.468Z,32.60
2022-08-21T08:51:53.027Z,32.49
2022-08-21T08:54:27.932Z,32.82
2022-08-21T08:56:58.237Z,31.88
2022-08-21T08:59:29.633Z,32.54
2022-08-21T09:02:00.689Z,33.53
2022-08-21T09:04:30.714Z,34.25
2022-08-21T09:07:11.998Z,35.59
2022-08-21T09:09:54.692Z,34.51
2022-08-21T09:12:35.025Z,33.86
2022-08-21T09:15:14.332Z,34.83
2022-08-21T09:18:18.015Z,33.58
2022-08-21T09:20:58.635Z,35.34
2022-08-21T09:23:39.097Z,36.30
2022-08-21T09:26:14.010Z,36.13
2022-08-21T09:28:43.552Z,35.61
2022-08-21T09:31:23.222Z,36.26
2022-08-21T09:34:03.467Z,36.97
2022-08-21T09:36:39.394Z,37.40
2022-08-21T09:39:13.832Z,36.58
2022-08-21T09:41:42.549Z,35.53
2022-08-21T09:44:10.795Z,35.92
2022-08-21T09:46:52.650Z,35.89
2022-08-21T09:49:30.381Z,35.58
2022-08-21T09:52:00.534Z,36.52
2022-08-21T09:54:35.560Z,36.07
2022-08-21T09:57:34.355Z,37.47
2022-08-21T10:00:12.237Z,37.19
2022-08-21T10:02:40.367Z,37.32
2022-08-21T10:05:12.112Z,36.61
2022-08-21T10:07:42.403Z,36.30
2022-08-21T10:10:19.707Z,36.85
2022-08-21T10:12:57.510Z,36.66
2022-08-21T10:15:42.090Z,37.52
2022-08-21T10:20:37.717Z,34.75
2022-08-21T10:23:29.705Z,35.18
2022-08-21T10:26:13.572Z,33.77
2022-08-21T10:28:53.702Z,34.08
2022-08-21T10:31:30.536Z,35.80
2022-08-21T10:34:22.798Z,36.70
2022-08-21T10:37:10.753Z,35.98
2022-08-21T10:39:47.132Z,37.10
2022-08-21T10:42:28.632Z,36.97
2022-08-21T10:45:12.448Z,38.03
2022-08-21T10:47:48.967Z,37.70
2022-08-21T10:50:27.500Z,38.01
2022-08-21T10:53:08.258Z,38.70
2022-08-21T10:55:42.311Z,38.27
2022-08-21T10:58:13.458Z,38.41
2022-08-21T11:00:48.199Z,38.27
2022-08-21T11:03:33.735Z,37.31
2022-08-21T11:06:08.896Z,38.26
2022-08-21T11:08:43.100Z,37.72
2022-08-21T11:11:21.605Z,37.20
2022-08-21T11:13:55.072Z,37.19
2022-08-21T11:16:33.540Z,35.33
2022-08-21T11:19:07.984Z,35.57
2022-08-21T11:21:43.293Z,34.29
2022-08-21T11:24:32.550Z,36.83
2022-08-21T11:27:06.533Z,34.88
2022-08-21T11:29:38.641Z,35.14
2022-08-21T11:32:38.769Z,36.52
2022-08-21T11:35:15.990Z,36.77
2022-08-21T11:38:00.645Z,37.28
2022-08-21T11:40:46.661Z,37.29
2022-08-21T11:43:21.762Z,35.63
2022-08-21T11:45:53.126Z,35.54
2022-08-21T11:48:39.669Z,34.39
2022-08-21T11:51:12.540Z,35.53
2022-08-21T11:53:54.097Z,33.90
2022-08-21T11:56:27.680Z,33.17
2022-08-21T11:59:01.436Z,32.04
2022-08-21T12:01:35.081Z,31.13
2022-08-21T12:04:06.391Z,30.90
2022-08-21T12:06:36.806Z,31.48
2022-08-21T12:09:08.330Z,30.65
2022-08-21T12:11:51.044Z,31.54
2022-08-21T12:14:21.001Z,30.31
2022-08-21T12:16:51.187Z,30.36
2022-08-21T12:19:31.352Z,30.75
2022-08-21T12:22:10.057Z,31.26
2022-08-21T12:24:42.614Z,31.04
2022-08-21T12:27:28.261Z,30.65
2022-08-21T12:30:00.611Z,31.17
2022-08-21T12:32:43.690Z,29.92
2022-08-21T12:35:25.198Z,30.30
2022-08-21T12:38:02.273Z,30.66
2022-08-21T12:40:34.165Z,30.96
2022-08-21T12:43:07.254Z,31.29
2022-08-21T12:45:42.216Z,30.39
2022-08-21T12:48:16.325Z,29.67
2022-08-21T12:50:52.429Z,30.27
2022-08-21T12:53:29.101Z,30.22
2022-08-21T12:56:04.697Z,30.23
2022-08-21T12:58:34.087Z,29.90
2022-08-21T13:01:06.909Z,29.66
2022-08-21T13:03:37.205Z,29.99
2022-08-21T13:06:10.687Z,29.59
2022-08-21T13:08:45.509Z,29.36
2022-08-21T13:11:32.448Z,29.03
2022-08-21T13:14:05.329Z,28.83
2022-08-21T13:16:35.725Z,29.03
2022-08-21T13:19:09.520Z,29.17
2022-08-21T13:21:44.073Z,29.57
2022-08-21T13:24:41.369Z,29.64
2022-08-21T13:27:21.351Z,29.91
2022-08-21T13:30:02.090Z,29.63
2022-08-21T13:32:33.882Z,29.76
2022-08-21T13:35:10.968Z,30.05
2022-08-21T13:37:42.176Z,30.18
2022-08-21T13:40:15.866Z,30.62
2022-08-21T13:42:50.272Z,30.56
2022-08-21T13:45:26.613Z,30.28
2022-08-21T13:47:57.589Z,30.07
2022-08-21T13:50:27.917Z,29.94
2022-08-21T13:53:00.551Z,29.83
2022-08-21T13:55:40.924Z,29.29
2022-08-21T13:58:09.602Z,28.96
2022-08-21T14:00:50.739Z,28.77
2022-08-21T14:03:33.266Z,28.77
2022-08-21T14:06:02.246Z,28.78
2022-08-21T14:08:35.275Z,28.63
2022-08-21T14:11:06.349Z,28.56
2022-08-21T14:13:41.936Z,28.44
2022-08-21T14:16:19.219Z,28.04
2022-08-21T14:18:50.663Z,27.98
2022-08-21T14:21:30.898Z,28.00
2022-08-21T14:24:04.902Z,27.70
2022-08-21T14:26:34.617Z,27.82
2022-08-21T14:29:09.712Z,27.90
2022-08-21T14:31:43.390Z,27.69
2022-08-21T14:34:19.580Z,27.59
2022-08-21T14:36:49.539Z,27.37
2022-08-21T14:39:17.711Z,27.55
2022-08-21T14:41:49.568Z,27.53
2022-08-21T14:44:19.344Z,27.58
2022-08-21T14:46:55.403Z,27.47
2022-08-21T14:49:28.784Z,27.78
2022-08-21T14:51:59.092Z,27.65
2022-08-21T14:54:32.682Z,27.54
2022-08-21T14:57:05.386Z,27.71
2022-08-21T14:59:34.605Z,27.75
2022-08-21T15:02:05.491Z,27.85
2022-08-21T15:04:36.761Z,27.78
2022-08-21T15:07:05.587Z,27.61
2022-08-21T15:09:33.595Z,27.58
2022-08-21T15:12:05.962Z,27.57
2022-08-21T15:14:38.340Z,27.54
2022-08-21T15:17:09.116Z,27.72
2022-08-21T15:21:28.247Z,27.73
2022-08-21T15:23:56.375Z,27.77
2022-08-21T15:26:25.148Z,27.86
2022-08-21T15:28:53.589Z,27.80
2022-08-21T15:31:21.651Z,27.81
2022-08-21T15:33:49.853Z,27.88
2022-08-21T15:36:17.900Z,27.89
2022-08-21T15:38:50.269Z,27.79
2022-08-21T15:41:19.987Z,27.66
2022-08-21T15:43:50.535Z,27.56
2022-08-21T15:46:20.954Z,27.13
2022-08-21T15:48:49.129Z,27.19
2022-08-21T15:51:19.059Z,27.01
2022-08-21T15:53:50.962Z,26.86
2022-08-21T15:56:24.014Z,26.99
2022-08-21T15:59:01.343Z,26.95
2022-08-21T16:01:29.973Z,26.93
2022-08-21T16:04:13.789Z,27.11
2022-08-21T16:06:54.462Z,27.22
2022-08-21T16:09:28.403Z,27.09
2022-08-21T16:11:56.580Z,27.05
2022-08-21T16:14:24.632Z,27.04
2022-08-21T16:16:53.823Z,26.83
2022-08-21T16:19:22.658Z,26.74
2022-08-21T16:21:50.971Z,26.78
2022-08-21T16:24:19.000Z,26.72
2022-08-21T16:26:57.801Z,26.58
2022-08-21T16:29:30.842Z,26.50
2022-08-21T16:31:59.149Z,26.45
2022-08-21T16:34:28.510Z,26.34
2022-08-21T16:36:56.697Z,26.25
2022-08-21T16:39:24.814Z,26.13
2022-08-21T16:41:56.680Z,26.07
2022-08-21T16:44:24.981Z,26.03
2022-08-21T16:46:53.023Z,26.05
2022-08-21T16:49:21.205Z,26.06
2022-08-21T16:51:49.372Z,26.03
2022-08-21T16:54:17.451Z,25.95
2022-08-21T16:56:47.897Z,25.93
2022-08-21T16:59:18.004Z,25.86
2022-08-21T17:01:47.075Z,25.82
2022-08-21T17:04:15.083Z,25.69
2022-08-21T17:06:45.648Z,25.69
2022-08-21T17:09:14.268Z,25.58
2022-08-21T17:11:49.602Z,25.60
2022-08-21T17:14:24.958Z,25.60
2022-08-21T17:16:55.458Z,25.57
2022-08-21T17:19:24.379Z,25.44
2022-08-21T17:21:54.568Z,25.38
2022-08-21T17:24:22.894Z,25.30
2022-08-21T17:26:51.514Z,25.26
2022-08-21T17:29:25.598Z,25.24
2022-08-21T17:31:53.879Z,25.25
2022-08-21T17:34:26.220Z,25.13
2022-08-21T17:37:00.416Z,25.05
2022-08-21T17:39:30.693Z,24.98
2022-08-21T17:42:02.582Z,24.91
2022-08-21T17:44:32.307Z,24.73
2022-08-21T17:47:00.536Z,24.79
2022-08-21T17:49:28.652Z,24.74
2022-08-21T17:51:56.734Z,24.66
2022-08-21T17:54:26.873Z,24.66
2022-08-21T17:56:58.430Z,24.55
2022-08-21T17:59:26.968Z,24.43
2022-08-21T18:02:01.338Z,24.44
2022-08-21T18:04:32.504Z,24.33
2022-08-21T18:07:00.856Z,24.23
2022-08-21T18:09:28.962Z,24.17
2022-08-21T18:11:58.608Z,24.04
2022-08-21T18:14:29.838Z,23.99
2022-08-21T18:16:59.530Z,23.81
2022-08-21T18:19:27.929Z,23.60
2022-08-21T18:21:58.871Z,23.43
2022-08-21T18:24:29.806Z,23.25
2022-08-21T18:26:57.789Z,23.07
2022-08-21T18:29:25.956Z,22.92
2022-08-21T18:31:56.824Z,22.78
2022-08-21T18:34:29.052Z,22.70
2022-08-21T18:36:57.576Z,22.56
2022-08-21T18:39:36.426Z,22.39
2022-08-21T18:42:10.121Z,22.25
2022-08-21T18:44:38.842Z,22.16
2022-08-21T18:47:11.616Z,21.91
2022-08-21T18:49:41.750Z,21.98
2022-08-21T18:52:10.296Z,21.91
2022-08-21T18:54:46.280Z,21.83
2022-08-21T18:57:19.504Z,21.74
2022-08-21T18:59:51.623Z,21.67
2022-08-21T19:02:20.185Z,21.61
2022-08-21T19:04:54.224Z,21.55
2022-08-21T19:07:22.561Z,21.47
2022-08-21T19:10:24.385Z,21.39
2022-08-21T19:12:44.342Z,21.31
2022-08-21T19:15:15.856Z,21.26
2022-08-21T19:17:45.356Z,21.21
2022-08-21T19:20:25.504Z,21.13
2022-08-21T19:22:57.531Z,21.09
2022-08-21T19:25:33.948Z,21.08
2022-08-21T19:28:11.210Z,21.02
2022-08-21T19:30:41.906Z,20.92
2022-08-21T19:33:23.352Z,20.86
2022-08-21T19:35:53.542Z,20.76
2022-08-21T19:38:21.881Z,20.68
2022-08-21T19:40:50.776Z,20.61
2022-08-21T19:43:22.462Z,20.58
2022-08-21T19:45:56.274Z,20.61
2022-08-21T19:48:24.686Z,20.57
2022-08-21T19:50:54.300Z,20.53
2022-08-21T19:53:22.551Z,20.42
2022-08-21T19:55:50.855Z,20.42
2022-08-21T19:58:32.813Z,20.35
2022-08-21T20:01:00.976Z,20.34
2022-08-21T20:03:29.303Z,20.32
2022-08-21T20:05:58.723Z,20.29
2022-08-21T20:08:28.368Z,20.38
2022-08-21T20:10:58.008Z,20.38
2022-08-21T20:13:26.359Z,20.33
2022-08-21T20:15:54.936Z,20.28
2022-08-21T20:18:27.080Z,20.40
2022-08-21T20:22:27.978Z,20.42
2022-08-21T20:24:56.257Z,20.59
2022-08-21T20:27:26.259Z,20.94
2022-08-21T20:29:56.035Z,21.03
2022-08-21T20:32:24.290Z,21.02
2022-08-21T20:34:53.771Z,20.97
2022-08-21T20:40:15.710Z,20.75
2022-08-21T20:42:51.841Z,20.58
2022-08-21T20:45:22.942Z,20.42
2022-08-21T20:47:52.733Z,20.27
2022-08-21T20:50:26.836Z,20.23
2022-08-21T20:53:04.887Z,20.40
2022-08-21T20:55:36.426Z,20.46
2022-08-21T20:58:08.705Z,20.21
2022-08-21T21:00:44.145Z,20.11
2022-08-21T21:03:17.295Z,19.85
2022-08-21T21:05:54.798Z,19.86
2022-08-21T21:08:29.365Z,19.83
2022-08-21T21:11:01.090Z,19.68
2022-08-21T21:13:33.871Z,19.58
2022-08-21T21:16:05.939Z,19.44
2022-08-21T21:18:40.747Z,19.31
2022-08-21T21:21:14.584Z,19.28
2022-08-21T21:23:49.243Z,19.34
2022-08-21T21:26:21.911Z,19.33
2022-08-21T21:28:55.882Z,19.22
2022-08-21T21:31:27.434Z,19.07
2022-08-21T21:33:57.318Z,19.02
2022-08-21T21:36:35.376Z,19.01
2022-08-21T21:39:22.852Z,18.93
2022-08-21T21:41:59.604Z,18.89
2022-08-21T21:44:51.632Z,18.81
2022-08-21T21:47:30.426Z,18.69
2022-08-21T21:50:19.039Z,18.65
2022-08-21T21:53:03.311Z,18.58
2022-08-21T21:56:04.365Z,18.59
2022-08-21T21:58:49.212Z,18.84
2022-08-21T22:01:27.213Z,18.81
2022-08-21T22:04:03.743Z,18.89
2022-08-21T22:06:40.442Z,19.16
2022-08-21T22:09:16.626Z,19.13
2022-08-21T22:11:59.267Z,19.01
2022-08-21T22:14:35.463Z,19.03
2022-08-21T22:17:33.890Z,19.16
2022-08-21T22:20:07.587Z,19.18
2022-08-21T22:22:43.938Z,19.12
2022-08-21T22:25:19.020Z,19.15
2022-08-21T22:27:55.053Z,19.05
2022-08-21T22:30:41.685Z,19.06
2022-08-21T22:33:15.500Z,19.18
2022-08-21T22:35:51.718Z,19.27
2022-08-21T22:38:36.212Z,19.18
2022-08-21T22:41:17.457Z,19.24
2022-08-21T22:43:56.388Z,19.25
2022-08-21T22:46:30.269Z,19.27
2022-08-21T22:49:03.480Z,19.33
2022-08-21T22:51:33.403Z,19.33
2022-08-21T22:54:03.896Z,19.29
2022-08-21T22:56:49.486Z,19.22
2022-08-21T22:59:27.149Z,19.24
2022-08-21T23:02:01.603Z,19.27
2022-08-21T23:04:30.080Z,19.23
2022-08-21T23:07:00.309Z,19.25
2022-08-21T23:09:35.900Z,19.29
2022-08-21T23:12:33.977Z,19.34
2022-08-21T23:15:08.769Z,19.45
2022-08-21T23:17:49.641Z,19.59
2022-08-21T23:20:29.511Z,19.64
2022-08-21T23:23:08.912Z,19.73
2022-08-21T23:25:47.834Z,19.81
2022-08-21T23:28:27.183Z,19.81
2022-08-21T23:31:08.679Z,19.79
2022-08-21T23:34:00.916Z,19.81
2022-08-21T23:37:03.005Z,19.82
2022-08-21T23:39:50.232Z,19.81
2022-08-21T23:42:39.644Z,19.83
2022-08-21T23:45:24.401Z,19.84
2022-08-21T23:48:21.631Z,19.75
2022-08-21T23:51:24.644Z,19.81
2022-08-21T23:54:06.695Z,19.83
2022-08-21T23:56:49.938Z,19.81
2022-08-21T23:59:34.816Z,19.69
